< Typhoon 199122 1991 Season Typhoon 199124 >
Typhoon 199123 (RUTH)
General InformationTrack Information on Google MapsDetailed Wind InformationList of All Images || Disaster Info.ResourceGoogle EarthGE AnimationAtom FeedGeoJSON
Detalied Best Track (Time Zone = UTC)
Year Month Day Hour Lat. Long. Pressure (hPa) Wind (kt) Class Image Chart
1991 10 19 12 8.5 146.5 1004 0 2 Image Chart
1991 10 19 18 9.0 146.0 1004 0 2 Image Chart
1991 10 20 00 9.6 145.3 1004 0 2 Image Chart
1991 10 20 06 10.0 145.0 1002 0 2 Image Chart
1991 10 20 12 10.5 144.6 1002 0 2 Image Chart
1991 10 20 18 11.0 144.1 1002 0 2 Image Chart
1991 10 21 00 11.5 143.5 1000 0 2 Image Chart
1991 10 21 06 11.6 142.9 996 35 3 Image Chart
1991 10 21 12 11.7 142.5 994 40 3 Image Chart
1991 10 21 18 11.9 142.1 992 45 3 Image Chart
1991 10 22 00 12.3 141.8 985 50 4 Image Chart
1991 10 22 06 13.0 141.4 980 55 4 Image Chart
1991 10 22 12 13.5 140.7 970 65 5 Image Chart
1991 10 22 18 13.9 139.8 960 75 5 Image Chart
1991 10 23 00 14.0 138.9 945 85 5 Image Chart
1991 10 23 06 14.2 138.1 935 90 5 Image Chart
1991 10 23 12 14.3 137.2 925 95 5 Image Chart
1991 10 23 18 14.4 136.3 915 100 5 Image Chart
1991 10 24 00 14.6 135.3 905 110 5 Image Chart
1991 10 24 06 14.8 134.3 900 115 5 Image Chart
1991 10 24 12 15.1 133.2 895 115 5 Image Chart
1991 10 24 18 15.4 132.2 895 115 5 Image Chart
1991 10 25 00 15.7 131.2 900 115 5 Image Chart
1991 10 25 06 16.1 130.4 905 110 5 Image Chart
1991 10 25 12 16.5 129.6 905 110 5 Image Chart
1991 10 25 18 17.0 128.6 905 110 5 Image Chart
1991 10 26 00 17.5 127.6 905 110 5 Image Chart
1991 10 26 06 17.9 126.5 910 105 5 Image Chart
1991 10 26 12 18.3 125.7 915 100 5 Image Chart
1991 10 26 18 18.7 124.5 920 95 5 Image Chart
1991 10 27 00 18.7 123.4 930 90 5 Image Chart
1991 10 27 06 18.3 122.7 935 90 5 Image Chart
1991 10 27 12 18.0 122.1 940 85 5 Image Chart
1991 10 27 18 17.8 121.7 950 80 5 Image Chart
1991 10 28 00 17.8 121.2 960 75 5 Image Chart
1991 10 28 06 17.8 120.8 970 70 5 Image Chart
1991 10 28 12 18.0 120.3 975 65 5 Image Chart
1991 10 28 18 18.5 119.9 980 60 4 Image Chart
1991 10 29 00 18.9 119.7 980 55 4 Image Chart
1991 10 29 06 19.3 119.6 985 50 4 Image Chart
1991 10 29 12 19.7 119.8 990 45 3 Image Chart
1991 10 29 18 20.1 120.1 992 45 3 Image Chart
1991 10 30 00 20.7 121.0 996 35 3 Image Chart
1991 10 30 06 21.3 122.8 998 35 3 Image Chart
1991 10 30 12 22.0 124.0 1000 35 3 Image Chart
1991 10 30 18 22.8 125.3 1000 35 3 Image Chart
1991 10 31 00 24.0 127.0 1002 0 6 Image Chart
1991 10 31 06 25.0 129.0 1002 0 6 Image Chart
1991 10 31 12 27.0 133.0 1002 0 6 Image Chart
1991 10 31 18 28.0 136.0 1004 0 6 Image Chart
1991 11 1 00 31.0 140.0 1004 0 6 Image Chart
1991 11 1 06 32.0 142.0 1004 0 6 Image Chart
1991 11 1 12 33.0 144.0 1004 0 6 Image Chart
1991 11 1 18 33.0 146.0 1004 0 6 Image Chart
1991 11 2 00 34.0 149.0 1006 0 6 Image Chart
1991 11 2 06 34.0 151.0 1006 0 6 Image Chart
1991 11 2 12 34.0 154.0 1006 0 6 Image Chart
1991 11 2 18 34.0 157.0 1006 0 6 Image Chart
1991 11 3 00 34.0 159.0 1010 0 6 Image Chart
Japan Meteorological Agency Best Track Data | Correction Date : 1992-01-04
< Typhoon 199122 1991 Season Typhoon 199124 >

Help